Time;durP1;ratioP1;P1;durP2;ratioP2;P2;SDS_P1;SDS_P2;PMS_P1;PMS_P2;Temp;Humidity;BMP_temperature;BMP_pressure;BME280_temperature;BME280_humidity;BME280_pressure;Samples;Min_cycle;Max_cycle;Signal;HPM_P1;HPM_P2
2021/12/15 00:01:58;;;;;;;;;48.25;37.75;;;;;10.88;66.94;103011.78;5018555;28;46104;-91
2021/12/15 00:04:24;;;;;;;;;48.50;37.00;;;;;10.88;67.07;103012.66;5007408;28;45341;-81
2021/12/15 00:06:49;;;;;;;;;48.25;36.00;;;;;10.88;67.06;103006.53;5021370;28;45699;-81
2021/12/15 00:09:15;;;;;;;;;43.50;34.75;;;;;10.90;67.11;103004.78;5019498;28;45553;-81
2021/12/15 00:11:42;;;;;;;;;49.25;38.25;;;;;10.88;66.97;103006.53;5019544;28;45414;-82
2021/12/15 00:14:11;;;;;;;;;50.75;39.00;;;;;10.85;67.49;103002.13;5018783;28;45318;-82
2021/12/15 00:16:38;;;;;;;;;50.25;37.75;;;;;10.89;67.48;102997.78;5037032;28;45745;-82
2021/12/15 00:19:05;;;;;;;;;47.50;36.00;;;;;10.89;67.00;103003.03;5023242;28;45237;-82
2021/12/15 00:21:31;;;;;;;;;47.00;35.75;;;;;10.87;66.81;102994.22;5019549;28;45456;-79
2021/12/15 00:23:57;;;;;;;;;51.00;37.25;;;;;10.87;66.91;102999.50;5018438;28;45457;-80
2021/12/15 00:26:23;;;;;;;;;48.50;37.75;;;;;10.87;67.00;103003.00;5016995;28;46064;-80
2021/12/15 00:28:50;;;;;;;;;49.00;38.75;;;;;10.87;66.98;102999.50;5019439;28;45366;-83
2021/12/15 00:31:16;;;;;;;;;49.75;37.75;;;;;10.84;67.15;102989.84;5021604;28;45502;-83
2021/12/15 00:33:43;;;;;;;;;48.00;37.00;;;;;10.85;66.98;102990.72;5019706;28;45545;-80
2021/12/15 00:36:11;;;;;;;;;47.00;36.00;;;;;10.83;67.13;102993.34;5019035;28;45845;-80
2021/12/15 00:38:37;;;;;;;;;51.50;37.25;;;;;10.84;67.21;102994.25;5019451;28;45442;-83
2021/12/15 00:41:04;;;;;;;;;47.00;36.00;;;;;10.84;67.08;102992.47;5018041;28;45429;-80
2021/12/15 00:43:30;;;;;;;;;45.00;34.00;;;;;10.84;67.02;102994.25;5018973;28;45552;-80
2021/12/15 00:45:55;;;;;;;;;50.00;36.50;;;;;10.83;67.11;102989.84;5022860;28;45533;-80
2021/12/15 00:48:21;;;;;;;;;46.50;36.50;;;;;10.82;67.26;102988.06;5019209;28;45391;-80
2021/12/15 00:50:47;;;;;;;;;45.00;37.00;;;;;10.86;67.21;102992.50;5018908;28;45268;-80
2021/12/15 00:53:14;;;;;;;;;47.50;37.50;;;;;10.84;67.27;102988.97;5009862;28;45924;-80
2021/12/15 00:55:41;;;;;;;;;45.75;38.25;;;;;10.84;67.22;102988.97;5014961;28;45209;-80
2021/12/15 00:58:07;;;;;;;;;40.00;34.00;;;;;10.82;67.22;102988.97;5019178;28;45483;-80
2021/12/15 01:00:41;;;;;;;;;48.50;37.75;;;;;10.81;67.13;102989.84;5020041;28;45307;-80
2021/12/15 01:03:07;;;;;;;;;47.00;36.75;;;;;10.82;67.08;102988.06;5015979;28;46484;-80
2021/12/15 01:05:37;;;;;;;;;45.00;36.50;;;;;10.80;67.09;102995.97;5017876;28;45912;-80
2021/12/15 01:08:06;;;;;;;;;53.25;38.25;;;;;10.80;67.34;102988.97;5022703;28;45161;-80
2021/12/15 01:10:52;;;;;;;;;50.00;39.50;;;;;10.83;67.32;102997.75;5022121;28;45477;-80
2021/12/15 01:21:32;;;;;;;;;49.50;39.25;;;;;10.82;67.32;102995.97;5027438;28;45382;-86
2021/12/15 01:23:57;;;;;;;;;52.50;39.00;;;;;10.82;67.35;102995.97;5033603;28;46293;-82
2021/12/15 01:26:23;;;;;;;;;46.75;37.25;;;;;10.79;67.44;102987.19;5022150;28;45306;-82
2021/12/15 01:28:48;;;;;;;;;48.50;36.50;;;;;10.80;67.31;102991.59;5021127;28;46608;-82
2021/12/15 01:31:14;;;;;;;;;49.75;37.25;;;;;10.84;67.18;102989.84;5022613;28;45569;-82
2021/12/15 01:33:39;;;;;;;;;51.00;37.75;;;;;10.82;67.25;102986.31;5021555;28;45478;-82
2021/12/15 01:36:07;;;;;;;;;50.50;39.75;;;;;10.86;67.24;102992.50;5021808;28;45553;-81
2021/12/15 01:38:35;;;;;;;;;50.75;39.50;;;;;10.84;67.64;102987.19;5022065;28;45242;-81
2021/12/15 01:41:00;;;;;;;;;47.00;39.00;;;;;10.85;67.00;102990.72;5012712;28;45450;-81
2021/12/15 01:43:50;;;;;;;;;46.00;35.00;;;;;10.86;67.29;102987.22;5021743;28;46491;-81
2021/12/15 01:49:10;;;;;;;;;45.25;36.00;;;;;10.82;66.82;102985.44;5021625;28;45158;-84
2021/12/15 01:51:36;;;;;;;;;51.75;39.50;;;;;10.84;67.44;102994.25;5035393;28;45699;-85
2021/12/15 01:54:03;;;;;;;;;47.00;36.00;;;;;10.82;67.34;102985.44;5021632;28;46597;-84
2021/12/15 01:56:29;;;;;;;;;53.00;39.50;;;;;10.81;67.11;103000.38;5035731;28;45824;-85
2021/12/15 01:58:55;;;;;;;;;47.25;38.25;;;;;10.82;67.33;102996.84;5012459;28;45468;-85
2021/12/15 02:01:21;;;;;;;;;47.50;35.50;;;;;10.83;66.70;102997.75;5020994;28;45417;-85
2021/12/15 02:03:46;;;;;;;;;49.75;37.00;;;;;10.83;67.48;103005.63;5021253;28;46274;-85
2021/12/15 02:06:12;;;;;;;;;45.50;36.75;;;;;10.82;67.31;103001.22;5028962;28;45589;-85
2021/12/15 02:08:38;;;;;;;;;49.50;36.75;;;;;10.84;67.26;103012.66;5025749;28;45524;-85
2021/12/15 02:11:05;;;;;;;;;45.50;36.75;;;;;10.82;67.46;103006.50;5020679;28;45347;-85
2021/12/15 02:13:30;;;;;;;;;49.50;36.75;;;;;10.83;67.31;103008.25;5021156;28;45319;-85
2021/12/15 02:16:00;;;;;;;;;45.50;38.75;;;;;10.79;67.37;103005.63;5020518;28;45487;-85
2021/12/15 02:18:30;;;;;;;;;49.50;39.00;;;;;10.80;67.35;103020.53;5021407;28;45540;-80
2021/12/15 02:20:59;;;;;;;;;49.25;38.25;;;;;10.82;67.30;103012.63;5019782;28;45468;-82
2021/12/15 02:23:34;;;;;;;;;44.25;37.00;;;;;10.83;67.54;103013.53;5028584;28;46531;-83
2021/12/15 02:26:03;;;;;;;;;46.00;37.25;;;;;10.84;67.13;103010.03;5033121;28;45876;-82
2021/12/15 02:28:28;;;;;;;;;46.00;35.75;;;;;10.82;67.19;103022.28;5019929;28;45338;-83
2021/12/15 02:31:01;;;;;;;;;52.00;37.50;;;;;10.83;67.18;103013.53;5007708;28;45418;-83
2021/12/15 02:38:46;;;;;;;;;44.75;35.75;;;;;10.78;66.98;103016.13;5021252;28;45522;-85
2021/12/15 02:41:23;;;;;;;;;43.00;35.25;;;;;10.78;67.25;103018.78;5018757;28;45421;-84
2021/12/15 02:44:00;;;;;;;;;47.25;35.50;;;;;10.76;67.16;103008.25;5020111;28;45579;-85
2021/12/15 02:46:28;;;;;;;;;44.75;37.00;;;;;10.79;67.41;103017.91;5019288;28;45416;-83
2021/12/15 02:48:54;;;;;;;;;43.00;36.50;;;;;10.80;67.50;103028.44;5020998;28;45166;-84
2021/12/15 02:51:20;;;;;;;;;41.50;34.00;;;;;10.78;66.99;103019.66;5035213;28;46058;-84
2021/12/15 02:53:47;;;;;;;;;44.00;35.25;;;;;10.79;67.27;103018.75;5021996;28;46323;-84
2021/12/15 02:56:14;;;;;;;;;45.00;36.75;;;;;10.80;67.25;103014.38;5032272;28;45386;-85
2021/12/15 02:58:48;;;;;;;;;47.75;37.00;;;;;10.80;67.06;103022.28;5020808;28;45342;-85
2021/12/15 03:01:22;;;;;;;;;46.00;35.00;;;;;10.82;67.06;103017.00;5017158;28;45990;-85
2021/12/15 03:06:35;;;;;;;;;42.50;34.50;;;;;10.79;67.29;103017.91;5030604;28;45221;-83
2021/12/15 03:15:21;;;;;;;;;44.75;37.25;;;;;10.77;67.37;103007.38;5020242;28;45452;-83
2021/12/15 03:17:26;;;;;;;;;43.75;35.00;;;;;10.77;67.46;103003.84;5018822;28;45838;-83
2021/12/15 03:19:52;;;;;;;;;44.25;35.75;;;;;10.78;67.30;103014.41;5020290;28;45273;-83
2021/12/15 03:22:18;;;;;;;;;48.50;37.00;;;;;10.79;67.08;103018.75;5020050;28;45366;-84
2021/12/15 03:24:44;;;;;;;;;46.00;37.00;;;;;10.80;67.05;103017.91;5011566;28;45670;-83
2021/12/15 03:27:16;;;;;;;;;47.00;35.75;;;;;10.77;67.57;103020.53;5031367;28;45284;-84
2021/12/15 03:37:58;;;;;;;;;45.50;35.75;;;;;10.79;67.32;103017.91;5020082;28;45429;-83
2021/12/15 03:40:36;;;;;;;;;35.50;33.25;;;;;10.77;67.22;103015.25;5020000;28;45229;-84
2021/12/15 03:43:08;;;;;;;;;47.50;36.25;;;;;10.77;67.19;103020.53;5014297;28;45477;-84
2021/12/15 03:45:45;;;;;;;;;43.00;33.00;;;;;10.76;67.16;103021.41;5009748;28;45367;-88
2021/12/15 03:48:16;;;;;;;;;49.25;35.50;;;;;10.76;67.26;103024.03;5015508;28;45494;-84
2021/12/15 03:50:44;;;;;;;;;48.00;34.75;;;;;10.77;67.31;103020.53;5019902;28;45189;-84
2021/12/15 03:53:11;;;;;;;;;46.00;36.25;;;;;10.76;67.04;103018.78;5035208;28;47246;-83
2021/12/15 03:55:38;;;;;;;;;46.25;37.00;;;;;10.78;67.21;103021.41;5018349;28;46090;-85
2021/12/15 03:58:09;;;;;;;;;43.25;36.00;;;;;10.76;67.10;103026.66;5035027;28;45410;-83
2021/12/15 04:00:37;;;;;;;;;47.00;38.75;;;;;10.77;67.18;103025.78;5024933;28;45219;-83
2021/12/15 04:03:02;;;;;;;;;36.75;33.50;;;;;10.75;67.14;103030.16;5025378;28;46013;-82
2021/12/15 04:05:28;;;;;;;;;40.75;31.00;;;;;10.76;67.01;103028.41;5018713;28;46376;-87
2021/12/15 04:07:55;;;;;;;;;46.50;35.00;;;;;10.74;66.83;103028.41;5019815;28;45383;-87
2021/12/15 04:10:25;;;;;;;;;43.00;36.00;;;;;10.77;67.20;103027.53;5019857;28;45182;-87
2021/12/15 04:12:51;;;;;;;;;49.75;36.75;;;;;10.75;67.37;103024.00;5034942;28;46050;-87
2021/12/15 04:17:50;;;;;;;;;54.25;39.00;;;;;10.75;67.34;103026.66;5019498;28;45340;-87
2021/12/15 04:20:19;;;;;;;;;39.75;33.50;;;;;10.74;67.35;103020.50;5019608;28;45369;-88
2021/12/15 04:22:45;;;;;;;;;51.00;36.00;;;;;10.73;67.36;103018.75;5007914;28;45517;-89
2021/12/15 04:25:22;;;;;;;;;41.75;35.50;;;;;10.73;67.27;103016.13;5019344;28;46451;-90
2021/12/15 04:28:03;;;;;;;;;45.25;35.00;;;;;10.75;67.15;103019.63;5019749;28;45732;-90
2021/12/15 04:30:31;;;;;;;;;45.25;35.50;;;;;10.73;67.38;103009.97;5031576;28;45462;-92
2021/12/15 04:33:01;;;;;;;;;42.50;35.25;;;;;10.75;67.40;103016.13;5019062;28;45227;-92
2021/12/15 04:35:27;;;;;;;;;48.00;37.00;;;;;10.72;67.39;103014.38;5019650;28;46393;-87
2021/12/15 04:37:53;;;;;;;;;41.75;32.50;;;;;10.70;67.33;103008.22;5029242;28;45530;-87
2021/12/15 04:40:22;;;;;;;;;41.25;34.00;;;;;10.71;67.34;103010.00;5031855;28;45489;-88
2021/12/15 04:42:49;;;;;;;;;42.75;32.50;;;;;10.73;67.30;103016.13;5021490;28;45289;-88
2021/12/15 04:45:18;;;;;;;;;40.00;34.00;;;;;10.72;67.38;103019.63;5021094;28;48462;-87
2021/12/15 04:47:44;;;;;;;;;49.25;34.00;;;;;10.72;67.22;103018.78;5022456;28;45353;-87
2021/12/15 04:50:10;;;;;;;;;44.75;34.00;;;;;10.73;67.37;103018.75;5018789;28;45315;-87
2021/12/15 04:52:37;;;;;;;;;47.25;36.00;;;;;10.72;67.21;103022.25;5022960;28;45193;-94
2021/12/15 04:55:04;;;;;;;;;39.75;34.50;;;;;10.72;67.32;103024.88;5022186;28;48374;-93
2021/12/15 04:57:30;;;;;;;;;36.75;30.75;;;;;10.69;67.21;103017.84;5025463;28;45842;-85
2021/12/15 04:59:56;;;;;;;;;45.50;33.00;;;;;10.72;67.28;103027.50;5009090;28;45475;-84
2021/12/15 05:02:23;;;;;;;;;44.25;33.00;;;;;10.71;67.23;103031.03;5022516;28;45418;-86
2021/12/15 05:04:50;;;;;;;;;41.50;31.50;;;;;10.75;67.38;103037.16;5020604;28;47084;-88
2021/12/15 05:07:17;;;;;;;;;47.50;35.00;;;;;10.72;67.44;103035.41;5026436;28;45272;-87
2021/12/15 05:09:44;;;;;;;;;38.00;33.50;;;;;10.76;67.34;103038.94;5054003;28;45311;-89
2021/12/15 05:12:11;;;;;;;;;42.75;32.50;;;;;10.77;67.48;103043.31;5020894;28;47414;-89
2021/12/15 05:14:36;;;;;;;;;39.25;33.50;;;;;10.77;67.44;103046.81;5022125;28;46397;-84
2021/12/15 05:17:03;;;;;;;;;44.00;33.50;;;;;10.75;67.40;103045.06;5022123;28;45307;-85
2021/12/15 05:19:28;;;;;;;;;41.50;33.25;;;;;10.76;67.23;103044.19;5034159;28;45488;-85
2021/12/15 05:21:57;;;;;;;;;33.25;27.00;;;;;10.76;67.20;103046.84;5022169;28;45406;-86
2021/12/15 05:26:55;;;;;;;;;33.75;30.50;;;;;10.76;66.98;103049.47;5022263;28;45441;-82
2021/12/15 05:29:21;;;;;;;;;35.50;30.00;;;;;10.78;67.00;103048.59;5031962;28;45272;-82
2021/12/15 05:31:47;;;;;;;;;33.25;31.25;;;;;10.75;66.87;103045.06;5022046;28;45376;-87
2021/12/15 05:34:13;;;;;;;;;41.00;30.25;;;;;10.75;66.82;103048.56;5020806;28;45558;-87
2021/12/15 05:36:39;;;;;;;;;31.75;26.00;;;;;10.76;66.74;103054.72;5010532;28;45391;-86
2021/12/15 05:39:06;;;;;;;;;33.25;30.25;;;;;10.76;66.88;103059.97;5022367;28;45273;-91
2021/12/15 05:41:33;;;;;;;;;32.25;28.00;;;;;10.76;66.66;103068.75;5019663;28;45589;-84
2021/12/15 05:43:58;;;;;;;;;29.25;26.00;;;;;10.77;67.16;103067.88;5020552;28;46560;-84
2021/12/15 05:46:24;;;;;;;;;32.00;28.75;;;;;10.76;66.39;103059.97;5021621;28;45699;-84
2021/12/15 05:48:49;;;;;;;;;35.00;28.00;;;;;10.76;66.44;103068.75;5037026;28;45822;-84
2021/12/15 05:51:15;;;;;;;;;36.50;28.75;;;;;10.76;66.69;103071.41;5022067;28;45390;-91
2021/12/15 05:53:40;;;;;;;;;34.25;25.75;;;;;10.76;66.73;103070.50;5033460;28;48263;-91
2021/12/15 05:56:06;;;;;;;;;29.25;26.50;;;;;10.76;66.70;103068.75;5020636;28;45703;-91
2021/12/15 05:58:32;;;;;;;;;35.75;29.00;;;;;10.75;66.56;103069.63;5022281;28;45292;-85
2021/12/15 06:00:58;;;;;;;;;37.00;30.00;;;;;10.73;66.47;103068.75;5020485;28;45438;-86
2021/12/15 06:03:23;;;;;;;;;32.00;27.75;;;;;10.73;66.50;103073.13;5036612;28;46993;-86
2021/12/15 06:05:48;;;;;;;;;28.00;27.25;;;;;10.72;66.56;103068.75;5021297;28;45258;-85
2021/12/15 06:08:14;;;;;;;;;29.75;25.50;;;;;10.73;66.68;103074.00;5022349;28;45406;-92
2021/12/15 06:10:40;;;;;;;;;35.00;30.75;;;;;10.73;66.57;103075.75;5032962;28;46626;-91
2021/12/15 06:13:08;;;;;;;;;32.50;28.50;;;;;10.75;66.67;103082.78;5020314;28;47538;-94
2021/12/15 06:15:34;;;;;;;;;27.50;24.75;;;;;10.74;66.67;103078.38;5022096;28;45249;-95
2021/12/15 06:18:06;;;;;;;;;30.25;25.50;;;;;10.75;66.48;103084.53;5037802;28;45312;-95
2021/12/15 06:20:33;;;;;;;;;32.00;30.50;;;;;10.75;66.68;103093.28;5014246;28;45592;-95
2021/12/15 06:23:01;;;;;;;;;28.25;27.75;;;;;10.72;66.71;103087.16;5019936;28;47248;-88
2021/12/15 06:25:28;;;;;;;;;27.25;22.50;;;;;10.75;66.46;103101.19;5018174;28;45373;-88
2021/12/15 06:27:53;;;;;;;;;36.00;28.00;;;;;10.75;66.63;103103.81;5019919;28;45434;-86
2021/12/15 06:30:19;;;;;;;;;36.75;30.50;;;;;10.75;66.34;103095.03;5018771;28;45394;-87
2021/12/15 06:32:44;;;;;;;;;29.75;27.75;;;;;10.71;66.62;103093.28;5018290;28;46301;-87
2021/12/15 06:35:11;;;;;;;;;33.00;27.75;;;;;10.72;66.40;103095.06;5019459;28;45362;-88
2021/12/15 06:37:37;;;;;;;;;29.75;26.75;;;;;10.73;66.39;103099.41;5019860;28;45347;-88
2021/12/15 06:40:07;;;;;;;;;31.00;27.50;;;;;10.72;66.74;103109.06;5019149;28;45466;-88
2021/12/15 06:42:34;;;;;;;;;26.75;25.25;;;;;10.72;66.42;103106.44;5018131;28;46289;-87
2021/12/15 06:44:59;;;;;;;;;33.50;26.75;;;;;10.73;66.57;103100.31;5017875;28;45720;-86
2021/12/15 06:57:17;;;;;;;;;31.00;27.50;;;;;10.72;66.51;103106.44;5020074;28;45282;-87
2021/12/15 06:58:40;;;;;;;;;36.50;28.00;;;;;10.72;66.11;103121.34;5019466;28;45447;-84
2021/12/15 07:01:07;;;;;;;;;26.75;22.75;;;;;10.72;66.48;103122.22;5020326;28;45582;-84
2021/12/15 07:03:32;;;;;;;;;30.25;24.50;;;;;10.74;66.29;103130.97;5020711;28;45408;-92
2021/12/15 07:05:58;;;;;;;;;30.50;27.25;;;;;10.74;66.38;103128.34;5013575;28;45269;-87
2021/12/15 07:08:27;;;;;;;;;30.75;25.75;;;;;10.72;66.46;103116.94;5012742;28;46873;-87
2021/12/15 07:10:53;;;;;;;;;29.50;24.25;;;;;10.73;66.53;103126.63;5018613;28;45472;-87
2021/12/15 07:13:22;;;;;;;;;28.50;25.00;;;;;10.75;66.74;103135.38;5019097;28;45388;-87
2021/12/15 07:15:49;;;;;;;;;27.50;22.25;;;;;10.75;66.64;103132.75;5017678;28;46080;-87
2021/12/15 07:18:25;;;;;;;;;31.75;25.75;;;;;10.75;66.56;103132.75;5034282;28;45455;-87
2021/12/15 07:20:51;;;;;;;;;24.50;22.25;;;;;10.74;66.40;103138.88;5034581;28;46266;-87
2021/12/15 07:23:19;;;;;;;;;33.50;28.50;;;;;10.76;66.30;103145.03;5015136;28;47122;-87
2021/12/15 07:25:47;;;;;;;;;33.50;29.75;;;;;10.73;66.26;103145.03;5017205;28;45328;-86
2021/12/15 07:28:14;;;;;;;;;32.25;29.00;;;;;10.74;66.17;103141.50;5024114;28;45202;-86
2021/12/15 07:30:41;;;;;;;;;31.00;25.00;;;;;10.77;66.20;103146.78;5039540;28;45536;-88
2021/12/15 07:33:08;;;;;;;;;31.00;24.25;;;;;10.75;66.40;103143.28;5020037;28;46314;-86
2021/12/15 07:35:35;;;;;;;;;32.00;26.25;;;;;10.76;66.20;103150.31;5019800;28;45327;-87
2021/12/15 07:38:00;;;;;;;;;41.50;30.75;;;;;10.75;66.20;103148.53;5020450;28;45402;-88
2021/12/15 07:40:26;;;;;;;;;30.50;24.00;;;;;10.77;66.38;103154.69;5032840;28;45623;-87
2021/12/15 07:43:07;;;;;;;;;30.25;25.25;;;;;10.77;66.61;103152.06;5016573;28;45387;-88
2021/12/15 07:45:50;;;;;;;;;31.25;27.50;;;;;10.75;66.34;103159.06;5018509;28;45873;-88
2021/12/15 07:48:17;;;;;;;;;34.00;24.75;;;;;10.74;66.73;103162.53;5036039;28;45267;-87
2021/12/15 07:50:45;;;;;;;;;29.00;26.25;;;;;10.76;66.42;103163.47;5027908;28;45726;-88
2021/12/15 07:53:11;;;;;;;;;30.00;27.75;;;;;10.72;66.40;103166.94;5018374;28;48037;-87
2021/12/15 07:55:37;;;;;;;;;35.00;28.75;;;;;10.75;66.59;103166.06;5034969;28;45378;-86
2021/12/15 07:58:05;;;;;;;;;31.25;26.75;;;;;10.76;66.18;103170.47;5030036;28;45430;-88
2021/12/15 08:00:31;;;;;;;;;35.00;29.50;;;;;10.77;66.36;103178.34;5021748;28;46055;-87
2021/12/15 08:02:57;;;;;;;;;30.00;28.75;;;;;10.76;66.30;103171.34;5019871;28;46772;-87
2021/12/15 08:05:23;;;;;;;;;36.25;30.25;;;;;10.79;66.39;103173.97;5018249;28;45397;-88
2021/12/15 08:07:48;;;;;;;;;33.75;28.75;;;;;10.78;66.51;103169.59;5020160;28;45403;-89
2021/12/15 08:10:15;;;;;;;;;30.75;29.00;;;;;10.80;66.79;103180.13;5016709;28;45366;-87
2021/12/15 08:12:43;;;;;;;;;38.00;32.50;;;;;10.82;66.55;103174.84;5018849;28;45375;-86
2021/12/15 08:15:09;;;;;;;;;33.25;28.25;;;;;10.85;66.51;103178.41;5016746;28;45697;-86
2021/12/15 08:17:39;;;;;;;;;41.25;31.50;;;;;10.83;66.27;103174.00;5026704;28;45237;-86
2021/12/15 08:20:07;;;;;;;;;34.50;29.00;;;;;10.88;66.41;103186.31;5008302;28;46232;-87
2021/12/15 08:22:33;;;;;;;;;29.00;28.00;;;;;10.88;66.00;103177.53;5017942;28;48640;-87
2021/12/15 08:24:59;;;;;;;;;31.50;25.75;;;;;10.90;65.94;103189.84;5034749;28;45306;-87
2021/12/15 08:27:24;;;;;;;;;29.50;26.00;;;;;10.88;65.72;103180.16;5008284;28;45375;-86
2021/12/15 08:29:50;;;;;;;;;30.75;27.00;;;;;10.91;66.32;103177.56;5031320;28;45954;-86
2021/12/15 08:32:15;;;;;;;;;33.00;29.75;;;;;10.92;66.30;103179.31;5019413;28;45284;-87
2021/12/15 08:34:41;;;;;;;;;22.25;22.25;;;;;10.93;66.00;103178.44;5019140;28;45216;-87
2021/12/15 08:37:13;;;;;;;;;25.75;23.50;;;;;10.94;66.01;103180.19;5015381;28;45518;-86
2021/12/15 08:39:38;;;;;;;;;32.25;25.50;;;;;10.94;66.30;103180.19;5007224;28;45604;-87
2021/12/15 08:42:04;;;;;;;;;33.25;26.25;;;;;10.98;66.20;103181.09;5009617;28;46956;-91
2021/12/15 08:44:30;;;;;;;;;30.00;25.25;;;;;10.99;66.16;103186.34;5018205;28;45387;-91
2021/12/15 08:46:55;;;;;;;;;29.75;24.50;;;;;11.01;66.02;103186.38;5021787;28;45248;-90
2021/12/15 08:49:23;;;;;;;;;27.50;26.00;;;;;11.03;66.08;103193.41;5015718;28;46839;-90
2021/12/15 08:51:48;;;;;;;;;28.75;27.50;;;;;11.01;66.31;103189.00;5017149;28;48119;-89
2021/12/15 08:54:18;;;;;;;;;33.75;28.25;;;;;11.02;66.19;103194.28;5008345;28;45342;-90
2021/12/15 08:56:46;;;;;;;;;34.25;29.75;;;;;11.06;66.23;103183.78;5033318;28;45315;-90
2021/12/15 08:59:12;;;;;;;;;36.25;30.25;;;;;11.06;66.31;103192.56;5017467;28;46126;-90
2021/12/15 09:01:40;;;;;;;;;36.75;30.50;;;;;11.06;66.15;103189.03;5019098;28;45371;-90
2021/12/15 09:04:05;;;;;;;;;31.50;30.75;;;;;11.10;65.83;103188.16;5034128;28;45388;-90
2021/12/15 09:06:32;;;;;;;;;36.00;30.75;;;;;11.11;66.05;103188.16;5019759;28;45268;-90
2021/12/15 09:08:58;;;;;;;;;29.00;28.25;;;;;11.12;65.82;103194.31;5019271;28;45444;-90
2021/12/15 09:11:26;;;;;;;;;38.00;31.50;;;;;11.14;66.36;103200.47;5034052;28;48114;-90
2021/12/15 09:13:55;;;;;;;;;33.00;27.25;;;;;11.16;66.42;103200.47;5021576;28;45404;-90
2021/12/15 09:16:22;;;;;;;;;34.75;30.25;;;;;11.19;66.10;103205.75;5018243;28;45552;-90
2021/12/15 09:18:49;;;;;;;;;37.00;28.25;;;;;11.21;66.09;103209.28;5038832;28;46270;-90
2021/12/15 09:21:17;;;;;;;;;41.00;32.00;;;;;11.23;66.05;103204.91;5019860;28;46788;-91
2021/12/15 09:23:44;;;;;;;;;39.00;31.50;;;;;11.26;66.18;103199.63;5025693;28;45307;-92
2021/12/15 09:26:10;;;;;;;;;40.25;32.00;;;;;11.29;66.07;103196.13;5026331;28;45382;-92
2021/12/15 09:28:36;;;;;;;;;35.00;31.00;;;;;11.32;65.83;103198.78;5037819;28;45542;-91
2021/12/15 09:31:04;;;;;;;;;39.75;32.25;;;;;11.34;65.52;103199.66;5044740;28;47232;-92
2021/12/15 09:33:32;;;;;;;;;41.00;32.75;;;;;11.35;65.31;103207.56;5022004;28;45673;-92
2021/12/15 09:35:59;;;;;;;;;38.00;31.25;;;;;11.35;65.54;103211.97;5022697;28;45433;-92
2021/12/15 09:38:25;;;;;;;;;40.75;34.75;;;;;11.40;65.45;103206.72;5023823;28;46036;-92
2021/12/15 09:40:54;;;;;;;;;48.25;38.00;;;;;11.42;65.54;103203.22;5055134;28;47536;-93
2021/12/15 09:43:19;;;;;;;;;45.50;36.00;;;;;11.43;65.20;103207.56;5021674;28;45422;-93
2021/12/15 10:02:06;;;;;;;;;39.50;31.00;;;;;11.58;65.49;103204.13;5019377;28;46407;-95
2021/12/15 10:05:08;;;;;;;;;42.25;30.00;;;;;11.63;65.89;103201.50;5024847;28;45398;-94
2021/12/15 10:18:32;;;;;;;;;32.00;29.75;;;;;11.76;65.26;103219.97;5030746;28;45457;-95
2021/12/15 10:20:58;;;;;;;;;32.50;28.25;;;;;11.76;65.13;103209.41;5031378;28;45228;-96
2021/12/15 10:23:31;;;;;;;;;39.00;30.25;;;;;11.81;65.16;103213.84;5037001;28;46191;-95
2021/12/15 10:25:57;;;;;;;;;39.75;30.00;;;;;11.82;65.46;103205.06;5021326;28;45228;-95
2021/12/15 10:28:28;;;;;;;;;42.00;31.75;;;;;11.85;65.23;103206.81;5023250;28;45482;-95
2021/12/15 10:30:56;;;;;;;;;32.50;28.50;;;;;11.88;65.32;103206.81;5031511;28;46521;-95
2021/12/15 10:33:27;;;;;;;;;36.75;27.75;;;;;11.91;65.19;103209.44;5020270;28;45651;-96
2021/12/15 10:36:14;;;;;;;;;35.25;28.75;;;;;11.95;65.10;103204.19;5020383;28;45907;-95
2021/12/15 10:38:45;;;;;;;;;30.00;27.25;;;;;11.94;65.35;103200.66;5021898;28;45316;-95
2021/12/15 10:41:18;;;;;;;;;33.25;28.00;;;;;11.99;65.19;103206.81;5021555;28;45499;-95
2021/12/15 10:43:52;;;;;;;;;35.75;29.75;;;;;12.00;65.17;103205.06;5023421;28;47332;-95
2021/12/15 10:46:22;;;;;;;;;27.50;25.00;;;;;12.00;65.01;103194.53;5020720;28;45463;-96
2021/12/15 10:49:15;;;;;;;;;30.25;25.50;;;;;12.02;64.79;103195.41;5009362;28;45444;-95
2021/12/15 10:51:45;;;;;;;;;28.50;24.00;;;;;12.02;64.73;103192.78;5017287;28;47339;-94
2021/12/15 10:54:18;;;;;;;;;30.50;29.25;;;;;12.03;64.37;103194.50;5049897;28;48022;-94
2021/12/15 10:56:54;;;;;;;;;36.25;29.25;;;;;12.04;64.41;103198.91;5022668;28;45402;-94
2021/12/15 10:59:22;;;;;;;;;31.25;26.50;;;;;12.04;64.36;103191.00;5034408;28;45452;-95
2021/12/15 11:01:52;;;;;;;;;32.25;25.25;;;;;12.09;64.69;103194.53;5041641;28;45482;-95
2021/12/15 11:04:29;;;;;;;;;26.25;25.25;;;;;12.10;64.67;103191.00;5016759;28;45480;-94
2021/12/15 11:07:10;;;;;;;;;24.25;18.75;;;;;12.14;64.60;103186.66;5016351;28;45367;-96
2021/12/15 11:10:07;;;;;;;;;26.50;21.00;;;;;12.17;64.68;103191.94;5033946;28;45188;-95
2021/12/15 11:12:48;;;;;;;;;24.25;21.25;;;;;12.20;64.57;103186.63;5020010;28;47046;-96
2021/12/15 11:15:19;;;;;;;;;22.25;18.50;;;;;12.21;64.10;103185.78;5021342;28;45302;-96
2021/12/15 11:17:47;;;;;;;;;19.00;17.50;;;;;12.24;64.43;103184.91;5018441;28;45577;-94
2021/12/15 11:20:17;;;;;;;;;14.75;13.00;;;;;12.27;64.01;103190.19;5016273;28;45458;-94
2021/12/15 11:22:53;;;;;;;;;16.00;11.25;;;;;12.27;63.43;103182.25;5019271;28;46276;-95
2021/12/15 11:25:24;;;;;;;;;13.50;12.50;;;;;12.22;63.34;103182.25;5033905;28;48691;-95
2021/12/15 11:28:07;;;;;;;;;15.75;13.00;;;;;12.24;63.51;103187.53;5030707;28;46202;-95
2021/12/15 11:30:35;;;;;;;;;13.50;13.50;;;;;12.19;63.49;103184.00;5013153;28;45275;-95
2021/12/15 11:33:08;;;;;;;;;17.25;16.25;;;;;12.21;63.59;103176.97;5019579;28;46429;-91
2021/12/15 11:35:40;;;;;;;;;16.25;14.25;;;;;12.25;63.49;103178.72;5017886;28;47547;-91
2021/12/15 11:38:13;;;;;;;;;19.50;16.00;;;;;12.29;63.46;103177.88;5016966;28;45879;-88
2021/12/15 11:40:50;;;;;;;;;16.50;14.25;;;;;12.29;63.24;103171.69;5020655;28;45465;-91
2021/12/15 11:43:39;;;;;;;;;18.75;15.25;;;;;12.28;63.47;103184.00;5033551;28;47142;-91
2021/12/15 11:46:26;;;;;;;;;15.00;14.25;;;;;12.32;63.49;103174.34;5015532;28;46359;-91
2021/12/15 11:48:56;;;;;;;;;16.50;15.00;;;;;12.32;64.05;103169.91;5014370;28;45502;-92
2021/12/15 11:51:29;;;;;;;;;20.00;17.50;;;;;12.37;63.69;103167.31;5028408;28;45469;-90
2021/12/15 11:53:55;;;;;;;;;16.75;16.00;;;;;12.40;64.07;103169.03;5019229;28;45348;-91
2021/12/15 11:56:32;;;;;;;;;17.50;16.50;;;;;12.44;63.34;103170.81;5019720;28;45336;-91
2021/12/15 11:59:21;;;;;;;;;17.75;15.00;;;;;12.44;63.95;103165.53;5020052;28;45703;-91
2021/12/15 12:01:54;;;;;;;;;18.25;15.00;;;;;12.50;64.04;103176.06;5035143;28;45429;-91
2021/12/15 12:04:36;;;;;;;;;20.00;16.00;;;;;12.50;63.67;103168.16;5019915;28;45395;-91
2021/12/15 12:07:10;;;;;;;;;17.50;14.75;;;;;12.55;63.87;103173.41;5019736;28;45298;-90
2021/12/15 12:09:39;;;;;;;;;25.50;18.00;;;;;12.54;63.43;103169.91;5035273;28;45761;-91
2021/12/15 12:12:06;;;;;;;;;26.00;21.75;;;;;12.49;63.25;103163.75;5035182;28;45403;-91
2021/12/15 12:14:40;;;;;;;;;20.00;19.00;;;;;12.48;63.54;103160.25;5034986;28;47038;-92
2021/12/15 12:17:16;;;;;;;;;20.75;20.50;;;;;12.49;63.37;103164.63;5015731;28;46318;-93
2021/12/15 12:19:49;;;;;;;;;17.50;16.50;;;;;12.48;62.85;103160.25;5052052;28;45448;-91
2021/12/15 12:22:16;;;;;;;;;22.00;20.50;;;;;12.46;63.49;103155.84;5018693;28;45245;-92
2021/12/15 12:24:44;;;;;;;;;19.25;18.50;;;;;12.46;63.80;103155.84;5035296;28;47228;-93
2021/12/15 12:27:11;;;;;;;;;22.25;20.50;;;;;12.49;63.82;103155.84;5018475;28;48178;-93
2021/12/15 12:29:36;;;;;;;;;20.25;17.00;;;;;12.52;63.31;103162.88;5032744;28;45777;-94
2021/12/15 12:32:04;;;;;;;;;22.00;18.50;;;;;12.49;63.11;103161.13;5020026;28;45177;-93